Time;durP1;ratioP1;P1;durP2;ratioP2;P2;SDS_P1;SDS_P2;PMS_P1;PMS_P2;Temp;Humidity;BMP_temperature;BMP_pressure;BME280_temperature;BME280_humidity;BME280_pressure;Samples;Min_cycle;Max_cycle;Signal;HPM_P1;HPM_P2
2022/11/28 00:01:17;;;;;;;1.70;1.70;;;17.50;71.90;;;;;;5121010;27;44028;-71
2022/11/28 00:03:45;;;;;;;1.73;1.73;;;17.50;72.00;;;;;;5120618;27;44063;-70
2022/11/28 00:06:13;;;;;;;2.17;2.17;;;17.50;72.40;;;;;;5118466;27;43425;-70
2022/11/28 00:08:41;;;;;;;1.80;1.80;;;17.50;72.30;;;;;;5111378;27;43684;-70
2022/11/28 00:11:11;;;;;;;2.00;2.00;;;17.60;71.90;;;;;;5112835;27;43450;-71
2022/11/28 00:13:40;;;;;;;1.70;1.70;;;17.70;71.60;;;;;;5119733;27;43418;-72
2022/11/28 00:16:08;;;;;;;1.80;1.80;;;17.70;71.40;;;;;;5120493;27;43947;-71
2022/11/28 00:18:38;;;;;;;1.90;1.90;;;17.70;71.40;;;;;;5119650;27;43973;-71
2022/11/28 00:21:07;;;;;;;1.70;1.70;;;17.70;71.70;;;;;;5119079;27;43511;-69
2022/11/28 00:23:35;;;;;;;1.90;1.90;;;17.70;71.70;;;;;;5118867;27;43424;-71
2022/11/28 00:26:04;;;;;;;1.67;1.67;;;17.70;71.60;;;;;;5120445;27;43459;-71
2022/11/28 00:28:32;;;;;;;1.80;1.80;;;17.70;71.60;;;;;;5127047;27;43926;-71
2022/11/28 00:31:00;;;;;;;1.90;1.90;;;17.70;71.70;;;;;;5121090;27;43977;-70
2022/11/28 00:33:28;;;;;;;1.77;1.77;;;17.60;71.60;;;;;;5127293;27;43372;-71
2022/11/28 00:35:59;;;;;;;1.97;1.97;;;17.60;71.90;;;;;;5120367;27;43410;-71
2022/11/28 00:38:27;;;;;;;1.60;1.60;;;17.50;71.90;;;;;;5123157;27;43932;-71
2022/11/28 00:41:00;;;;;;;1.70;1.70;;;17.60;71.90;;;;;;5111636;27;44035;-70
2022/11/28 00:43:28;;;;;;;1.80;1.80;;;17.60;71.80;;;;;;5119293;27;43742;-71
2022/11/28 00:45:56;;;;;;;1.60;1.60;;;17.60;71.90;;;;;;5111617;27;43592;-71
2022/11/28 00:48:25;;;;;;;2.10;2.10;;;17.50;71.80;;;;;;5123448;27;43672;-71
2022/11/28 00:50:52;;;;;;;1.83;1.83;;;17.50;72.10;;;;;;5120024;27;43364;-71
2022/11/28 00:53:22;;;;;;;1.70;1.70;;;17.50;72.20;;;;;;5114768;27;43432;-70
2022/11/28 00:55:50;;;;;;;1.93;1.93;;;17.70;72.10;;;;;;5124337;27;44140;-70
2022/11/28 00:58:18;;;;;;;1.80;1.80;;;17.70;71.60;;;;;;5123513;27;43910;-71
2022/11/28 01:00:45;;;;;;;1.70;1.70;;;17.80;71.40;;;;;;5121839;27;44594;-70
2022/11/28 01:03:13;;;;;;;1.60;1.60;;;17.80;71.30;;;;;;5117751;27;43463;-70
2022/11/28 01:05:42;;;;;;;1.80;1.80;;;17.70;71.30;;;;;;5119437;27;43442;-71
2022/11/28 01:08:10;;;;;;;1.60;1.60;;;17.70;71.60;;;;;;5115683;27;43985;-69
2022/11/28 01:10:41;;;;;;;1.90;1.90;;;17.70;71.40;;;;;;5125585;27;43993;-72
2022/11/28 01:13:09;;;;;;;1.40;1.40;;;17.70;71.40;;;;;;5115743;27;43380;-69
2022/11/28 01:15:37;;;;;;;1.60;1.60;;;17.70;71.50;;;;;;5121575;27;43406;-70
2022/11/28 01:18:05;;;;;;;1.60;1.60;;;17.60;71.60;;;;;;5114930;27;43902;-69
2022/11/28 01:20:33;;;;;;;1.53;1.53;;;17.60;71.70;;;;;;5114223;27;45310;-71
2022/11/28 01:23:01;;;;;;;2.00;2.00;;;17.50;72.00;;;;;;5120118;27;43412;-72
2022/11/28 01:25:28;;;;;;;1.80;1.80;;;17.60;71.90;;;;;;5113833;27;43463;-70
2022/11/28 01:27:58;;;;;;;1.80;1.80;;;17.60;71.90;;;;;;5119654;27;43964;-69
2022/11/28 01:30:26;;;;;;;1.80;1.80;;;17.50;71.80;;;;;;5116467;27;44057;-70
2022/11/28 01:32:54;;;;;;;1.60;1.60;;;17.50;71.90;;;;;;5124201;27;44474;-71
2022/11/28 01:35:22;;;;;;;1.87;1.87;;;17.50;72.00;;;;;;5123758;27;43470;-69
2022/11/28 01:37:49;;;;;;;1.70;1.70;;;17.50;72.40;;;;;;5122299;27;43661;-70
2022/11/28 01:40:18;;;;;;;1.80;1.80;;;17.50;72.10;;;;;;5124255;27;43537;-70
2022/11/28 01:42:46;;;;;;;1.70;1.70;;;17.50;71.90;;;;;;5121726;27;43425;-71
2022/11/28 01:45:19;;;;;;;1.60;1.60;;;17.50;71.90;;;;;;5126051;27;43458;-72
2022/11/28 01:47:46;;;;;;;1.60;1.60;;;17.50;71.90;;;;;;5128710;27;44400;-70
2022/11/28 01:50:14;;;;;;;1.90;1.90;;;17.50;72.00;;;;;;5118157;27;43394;-70
2022/11/28 01:52:44;;;;;;;1.77;1.77;;;17.50;72.30;;;;;;5127164;27;43493;-71
2022/11/28 01:55:13;;;;;;;1.70;1.70;;;17.50;72.40;;;;;;5122087;27;43378;-71
2022/11/28 01:57:41;;;;;;;1.97;1.97;;;17.60;72.10;;;;;;5124510;27;43905;-70
2022/11/28 02:00:11;;;;;;;1.60;1.60;;;17.70;71.70;;;;;;5121386;27;44732;-70
2022/11/28 02:02:42;;;;;;;1.80;1.80;;;17.80;71.30;;;;;;5119924;27;43347;-71
2022/11/28 02:05:10;;;;;;;1.90;1.90;;;17.80;71.10;;;;;;5121623;27;43484;-71
2022/11/28 02:07:38;;;;;;;1.70;1.70;;;17.80;71.20;;;;;;5127337;27;43869;-70
2022/11/28 02:10:07;;;;;;;1.77;1.77;;;17.80;71.50;;;;;;5112945;27;43549;-71
2022/11/28 02:12:46;;;;;;;1.80;1.77;;;17.80;71.30;;;;;;5114902;27;43529;-71
2022/11/28 02:15:22;;;;;;;1.70;1.70;;;17.70;71.20;;;;;;5115010;27;44342;-71
2022/11/28 02:18:00;;;;;;;1.70;1.70;;;17.70;71.40;;;;;;5112009;27;45601;-70
2022/11/28 02:21:03;;;;;;;1.70;1.70;;;17.70;71.50;;;;;;5129045;27;43997;-72
2022/11/28 02:23:39;;;;;;;1.60;1.60;;;17.60;71.90;;;;;;5117774;27;43422;-72
2022/11/28 02:26:46;;;;;;;1.70;1.70;;;17.60;71.80;;;;;;5122807;27;43537;-70
2022/11/28 02:29:29;;;;;;;1.70;1.70;;;17.60;71.70;;;;;;5112504;27;45746;-71
2022/11/28 02:32:15;;;;;;;1.70;1.70;;;17.60;71.80;;;;;;5116042;27;45154;-70
2022/11/28 02:34:46;;;;;;;1.80;1.80;;;17.60;71.80;;;;;;5124206;27;43966;-71
2022/11/28 02:37:17;;;;;;;1.90;1.90;;;17.50;71.90;;;;;;5107236;27;43369;-69
2022/11/28 02:39:47;;;;;;;1.60;1.60;;;17.50;72.10;;;;;;5113043;27;43962;-72
2022/11/28 02:42:18;;;;;;;1.57;1.57;;;17.50;71.90;;;;;;5122585;27;43461;-71
2022/11/28 02:44:47;;;;;;;1.40;1.40;;;17.60;72.00;;;;;;5116890;27;43404;-71
2022/11/28 02:47:20;;;;;;;1.60;1.60;;;17.50;71.90;;;;;;5119882;27;43617;-70
2022/11/28 02:49:50;;;;;;;1.60;1.60;;;17.50;72.00;;;;;;5121439;27;43949;-72
2022/11/28 02:52:20;;;;;;;1.60;1.60;;;17.50;72.20;;;;;;5121419;27;45157;-71
2022/11/28 02:54:49;;;;;;;1.60;1.60;;;17.50;72.30;;;;;;5120708;27;43445;-70
2022/11/28 02:57:17;;;;;;;1.63;1.63;;;17.60;72.20;;;;;;5125268;27;44059;-71
2022/11/28 02:59:46;;;;;;;1.80;1.80;;;17.70;71.80;;;;;;5112315;27;45718;-70
2022/11/28 03:02:17;;;;;;;1.70;1.60;;;17.80;71.40;;;;;;5122211;27;45024;-71
2022/11/28 03:04:51;;;;;;;1.60;1.60;;;17.80;71.10;;;;;;5121615;27;43991;-70
2022/11/28 03:07:25;;;;;;;1.60;1.60;;;17.80;71.20;;;;;;5119967;27;44143;-70
2022/11/28 03:10:15;;;;;;;1.50;1.50;;;17.80;71.60;;;;;;5125922;27;43566;-71
2022/11/28 03:12:50;;;;;;;1.43;1.43;;;17.70;71.30;;;;;;5109941;27;43882;-71
2022/11/28 03:15:21;;;;;;;1.70;1.70;;;17.70;72.10;;;;;;5114710;27;43473;-72
2022/11/28 03:17:54;;;;;;;1.70;1.70;;;17.70;71.40;;;;;;5126498;27;43445;-72
2022/11/28 03:20:23;;;;;;;1.50;1.50;;;17.60;71.50;;;;;;5117557;27;43741;-70
2022/11/28 03:23:01;;;;;;;1.43;1.43;;;17.60;71.70;;;;;;5117270;27;43470;-69
2022/11/28 03:25:32;;;;;;;1.80;1.80;;;17.60;72.00;;;;;;5122035;27;43436;-71
2022/11/28 03:28:03;;;;;;;1.50;1.50;;;17.60;71.90;;;;;;5117747;27;43437;-72
2022/11/28 03:30:33;;;;;;;1.73;1.73;;;17.60;71.90;;;;;;5119096;27;45743;-72
2022/11/28 03:33:03;;;;;;;1.60;1.60;;;17.60;71.90;;;;;;5125194;27;43463;-72
2022/11/28 03:35:33;;;;;;;1.67;1.67;;;17.50;72.60;;;;;;5114634;27;43528;-72
2022/11/28 03:38:03;;;;;;;1.67;1.67;;;17.50;72.00;;;;;;5121647;27;44063;-70
2022/11/28 03:40:32;;;;;;;1.50;1.50;;;17.50;72.30;;;;;;5122406;27;45650;-70
2022/11/28 03:43:01;;;;;;;1.70;1.70;;;17.50;72.00;;;;;;5118904;27;43513;-70
2022/11/28 03:45:31;;;;;;;1.57;1.57;;;17.50;72.00;;;;;;5102964;27;43438;-70
2022/11/28 03:48:00;;;;;;;1.70;1.70;;;17.50;72.00;;;;;;5110727;27;43382;-70
2022/11/28 03:50:33;;;;;;;1.60;1.60;;;17.50;72.00;;;;;;5114234;27;43921;-71
2022/11/28 03:53:03;;;;;;;1.57;1.57;;;17.50;72.10;;;;;;5126731;27;43537;-70
2022/11/28 03:55:35;;;;;;;1.50;1.50;;;17.50;72.50;;;;;;5115349;27;43460;-72
2022/11/28 03:58:05;;;;;;;1.47;1.47;;;17.60;72.30;;;;;;5123938;27;43386;-71
2022/11/28 04:00:33;;;;;;;1.63;1.63;;;17.70;72.00;;;;;;5123892;27;43882;-71
2022/11/28 04:03:05;;;;;;;1.73;1.73;;;17.80;71.50;;;;;;5126227;27;43436;-69
2022/11/28 04:05:38;;;;;;;1.63;1.63;;;17.80;71.20;;;;;;5118634;27;43988;-71
2022/11/28 04:08:10;;;;;;;1.50;1.50;;;17.80;71.20;;;;;;5123128;27;43544;-71
2022/11/28 04:10:42;;;;;;;1.50;1.50;;;17.80;71.60;;;;;;5121257;27;43602;-72
2022/11/28 04:13:13;;;;;;;1.60;1.60;;;17.80;71.40;;;;;;5109252;27;44003;-70
2022/11/28 04:15:44;;;;;;;1.63;1.63;;;17.70;71.30;;;;;;5119136;27;43491;-71
2022/11/28 04:18:19;;;;;;;1.57;1.57;;;17.70;71.40;;;;;;5110760;27;43448;-70
2022/11/28 04:20:50;;;;;;;1.43;1.43;;;17.70;71.50;;;;;;5118986;27;43599;-70
2022/11/28 04:23:18;;;;;;;1.50;1.50;;;17.60;71.60;;;;;;5117056;27;43449;-71
2022/11/28 04:25:49;;;;;;;1.27;1.27;;;17.60;71.90;;;;;;5113062;27;44017;-69
2022/11/28 04:28:18;;;;;;;1.50;1.50;;;17.60;71.80;;;;;;5111204;27;43516;-72
2022/11/28 04:30:46;;;;;;;1.70;1.70;;;17.60;71.70;;;;;;5110779;27;43863;-72
2022/11/28 04:33:14;;;;;;;1.50;1.50;;;17.60;71.80;;;;;;5119493;27;43817;-70
2022/11/28 04:35:44;;;;;;;1.37;1.37;;;17.60;71.80;;;;;;5124270;27;43380;-71
2022/11/28 04:38:13;;;;;;;1.70;1.70;;;17.50;71.80;;;;;;5105804;27;43428;-71
2022/11/28 04:40:43;;;;;;;1.70;1.70;;;17.50;72.20;;;;;;5119245;27;43804;-71
2022/11/28 04:43:13;;;;;;;1.47;1.47;;;17.50;71.90;;;;;;5121514;27;44009;-70
2022/11/28 04:45:44;;;;;;;1.50;1.50;;;17.60;71.90;;;;;;5119958;27;43393;-71
2022/11/28 04:48:12;;;;;;;1.50;1.50;;;17.60;71.90;;;;;;5124200;27;43480;-70
2022/11/28 04:50:42;;;;;;;1.60;1.60;;;17.50;71.90;;;;;;5115238;27;43969;-69
2022/11/28 04:53:12;;;;;;;2.00;1.90;;;17.50;72.00;;;;;;5101905;27;44068;-72
2022/11/28 04:55:44;;;;;;;2.33;2.23;;;17.50;72.30;;;;;;5116045;27;43491;-71
2022/11/28 04:58:14;;;;;;;2.93;2.67;;;17.60;72.20;;;;;;5122533;27;43994;-71
2022/11/28 05:00:42;;;;;;;5.63;3.10;;;17.70;71.80;;;;;;5117249;27;43849;-72
2022/11/28 05:03:10;;;;;;;3.57;3.23;;;17.80;71.50;;;;;;5117040;27;43838;-69
2022/11/28 05:05:45;;;;;;;4.33;3.07;;;17.80;71.20;;;;;;5121023;27;43397;-70
2022/11/28 05:08:13;;;;;;;4.87;3.30;;;17.80;71.20;;;;;;5124262;27;43388;-70
2022/11/28 05:10:42;;;;;;;7.43;3.77;;;17.80;71.60;;;;;;5120470;27;46118;-70
2022/11/28 05:13:10;;;;;;;5.60;3.50;;;17.80;71.50;;;;;;5122111;27;43634;-70
2022/11/28 05:15:38;;;;;;;6.90;4.20;;;17.70;71.30;;;;;;5122577;27;43499;-71
2022/11/28 05:18:06;;;;;;;4.97;3.60;;;17.70;72.10;;;;;;5123929;27;43473;-71
2022/11/28 05:20:34;;;;;;;5.07;3.70;;;17.70;71.60;;;;;;5119104;27;43906;-70
2022/11/28 05:23:02;;;;;;;8.07;4.37;;;17.60;71.60;;;;;;5109193;27;44506;-70
2022/11/28 05:25:29;;;;;;;10.20;5.30;;;17.60;72.00;;;;;;5114416;27;43894;-72
2022/11/28 05:28:00;;;;;;;7.77;4.83;;;17.60;72.00;;;;;;5111017;27;43486;-70
2022/11/28 05:30:28;;;;;;;10.10;4.97;;;17.60;71.90;;;;;;5111495;27;45574;-70
2022/11/28 05:32:56;;;;;;;8.27;4.77;;;17.50;71.80;;;;;;5110860;27;43592;-72
2022/11/28 05:35:26;;;;;;;8.23;4.93;;;17.60;71.90;;;;;;5114131;27;44061;-70
2022/11/28 05:37:53;;;;;;;10.30;5.50;;;17.50;71.90;;;;;;5113704;27;43417;-71
2022/11/28 05:40:21;;;;;;;10.30;5.63;;;17.50;72.20;;;;;;5111948;27;43819;-70
2022/11/28 05:42:49;;;;;;;10.77;5.60;;;17.60;72.30;;;;;;5123539;27;44093;-70
2022/11/28 05:45:18;;;;;;;9.10;5.30;;;17.70;72.00;;;;;;5111176;27;43469;-70
2022/11/28 05:47:46;;;;;;;12.43;5.73;;;17.80;71.60;;;;;;5106475;27;43419;-71
2022/11/28 05:50:14;;;;;;;10.50;5.67;;;17.80;71.40;;;;;;5115095;27;46175;-70
2022/11/28 05:52:42;;;;;;;9.43;5.77;;;17.80;71.30;;;;;;5121711;27;43519;-71
2022/11/28 05:55:10;;;;;;;10.03;5.13;;;17.70;71.40;;;;;;5123130;27;43484;-71
2022/11/28 05:57:38;;;;;;;9.77;5.57;;;17.70;71.60;;;;;;5119746;27;43939;-71
2022/11/28 06:00:07;;;;;;;8.80;5.37;;;17.70;71.40;;;;;;5123032;27;45695;-70
2022/11/28 06:02:39;;;;;;;9.70;5.43;;;17.70;71.40;;;;;;5117498;27;43494;-71
2022/11/28 06:05:08;;;;;;;7.80;5.10;;;17.70;71.50;;;;;;5122596;27;43433;-71
2022/11/28 06:07:56;;;;;;;8.47;5.30;;;17.70;71.70;;;;;;5126931;27;43410;-71
2022/11/28 06:10:24;;;;;;;8.93;5.40;;;17.60;71.80;;;;;;5121835;27;45333;-71
2022/11/28 06:12:52;;;;;;;9.13;5.10;;;17.60;72.50;;;;;;5114205;27;43538;-71
2022/11/28 06:15:19;;;;;;;7.60;4.70;;;17.60;71.70;;;;;;5123252;27;43533;-70
2022/11/28 06:17:49;;;;;;;6.03;4.93;;;17.60;71.70;;;;;;5124592;27;43401;-70
2022/11/28 06:20:17;;;;;;;8.10;5.27;;;17.60;71.70;;;;;;5122189;27;43914;-71
2022/11/28 06:22:46;;;;;;;9.97;5.60;;;17.60;71.80;;;;;;5122098;27;43481;-71
2022/11/28 06:25:14;;;;;;;8.57;5.00;;;17.60;72.00;;;;;;5121882;27;43503;-71
2022/11/28 06:27:42;;;;;;;7.50;5.00;;;17.60;72.00;;;;;;5129043;27;43383;-71
2022/11/28 06:30:10;;;;;;;7.43;4.70;;;17.60;71.90;;;;;;5113861;27;43918;-70
2022/11/28 06:32:38;;;;;;;5.90;4.63;;;17.60;71.80;;;;;;5128037;27;43497;-70
2022/11/28 06:35:08;;;;;;;4.87;4.37;;;17.60;71.80;;;;;;5124401;27;43467;-71
2022/11/28 06:37:36;;;;;;;7.43;5.10;;;17.60;71.90;;;;;;5121213;27;43945;-69
2022/11/28 06:40:05;;;;;;;5.43;4.33;;;17.60;72.10;;;;;;5117309;27;43955;-70
2022/11/28 06:42:34;;;;;;;8.00;4.90;;;17.60;72.20;;;;;;5126079;27;44478;-70
2022/11/28 06:45:02;;;;;;;4.70;4.20;;;17.70;72.00;;;;;;5112062;27;43366;-70
2022/11/28 06:47:30;;;;;;;5.63;4.40;;;17.80;71.70;;;;;;5118495;27;44075;-73
2022/11/28 06:49:58;;;;;;;5.60;4.63;;;17.90;71.20;;;;;;5121890;27;43898;-69
2022/11/28 06:52:28;;;;;;;6.27;4.00;;;17.90;71.00;;;;;;5109900;27;43788;-71
2022/11/28 06:54:55;;;;;;;7.03;4.57;;;17.90;71.00;;;;;;5120504;27;43456;-70
2022/11/28 06:57:23;;;;;;;4.80;4.33;;;17.80;71.40;;;;;;5120638;27;44029;-71
2022/11/28 06:59:51;;;;;;;5.57;3.93;;;17.80;71.20;;;;;;5122185;27;43843;-71
2022/11/28 07:02:19;;;;;;;5.30;4.33;;;17.80;71.20;;;;;;5124191;27;43364;-72
2022/11/28 07:04:47;;;;;;;5.87;4.13;;;17.80;71.30;;;;;;5122381;27;43388;-72
2022/11/28 07:07:15;;;;;;;4.67;4.27;;;17.70;71.40;;;;;;5117470;27;43916;-71
2022/11/28 07:09:45;;;;;;;5.30;4.27;;;17.70;71.60;;;;;;5127286;27;43624;-71
2022/11/28 07:12:13;;;;;;;6.43;4.27;;;17.70;72.00;;;;;;5119167;27;43980;-71
2022/11/28 07:14:41;;;;;;;5.13;4.37;;;17.60;71.80;;;;;;5117461;27;43779;-71
2022/11/28 07:17:09;;;;;;;4.87;4.20;;;17.70;71.80;;;;;;5119599;27;43923;-71
2022/11/28 07:19:37;;;;;;;5.00;4.17;;;17.60;71.70;;;;;;5123795;27;43700;-69
2022/11/28 07:22:05;;;;;;;4.90;4.07;;;17.60;71.80;;;;;;5121178;27;44404;-71
2022/11/28 07:24:33;;;;;;;5.30;3.93;;;17.60;71.90;;;;;;5113476;27;43572;-71
2022/11/28 07:27:02;;;;;;;4.43;4.03;;;17.60;72.20;;;;;;5113269;27;43716;-74
2022/11/28 07:29:35;;;;;;;5.43;3.93;;;17.60;72.20;;;;;;5117333;27;43938;-71
2022/11/28 07:32:04;;;;;;;5.80;4.17;;;17.70;72.00;;;;;;5118825;27;46290;-71
2022/11/28 07:34:32;;;;;;;3.33;3.13;;;17.80;71.60;;;;;;5118674;27;43393;-71
2022/11/28 07:37:00;;;;;;;4.30;3.90;;;17.80;71.40;;;;;;5122955;27;43499;-71
2022/11/28 07:39:28;;;;;;;4.03;3.73;;;17.80;71.40;;;;;;5119235;27;44003;-71
2022/11/28 07:41:56;;;;;;;5.30;4.43;;;17.80;71.50;;;;;;5112549;27;43435;-70
2022/11/28 07:44:25;;;;;;;4.53;3.57;;;17.70;71.60;;;;;;5119683;27;43478;-71
2022/11/28 07:46:53;;;;;;;4.80;3.90;;;17.80;71.60;;;;;;5122008;27;44026;-71
2022/11/28 07:49:21;;;;;;;3.60;3.30;;;17.70;71.50;;;;;;5118229;27;43608;-71
2022/11/28 07:51:49;;;;;;;3.70;3.40;;;17.80;71.60;;;;;;5114117;27;43421;-74
2022/11/28 07:54:17;;;;;;;4.33;3.93;;;17.70;71.70;;;;;;5120578;27;43451;-72
2022/11/28 07:56:45;;;;;;;4.20;3.90;;;17.70;71.70;;;;;;5119652;27;44276;-72
2022/11/28 07:59:34;;;;;;;3.60;3.40;;;17.70;72.00;;;;;;5114961;27;43598;-72
2022/11/28 08:02:02;;;;;;;3.60;3.30;;;17.70;71.70;;;;;;5126486;27;43460;-70
2022/11/28 08:04:30;;;;;;;3.60;3.30;;;17.70;71.70;;;;;;5121952;27;43377;-70
2022/11/28 08:06:58;;;;;;;4.03;3.63;;;17.70;71.70;;;;;;5122324;27;43473;-71
2022/11/28 08:09:27;;;;;;;4.13;3.80;;;17.70;72.50;;;;;;5116161;27;44118;-70
2022/11/28 08:11:55;;;;;;;4.30;3.90;;;17.70;71.90;;;;;;5119239;27;44985;-71
2022/11/28 08:14:23;;;;;;;3.63;3.30;;;17.60;71.90;;;;;;5118606;27;43455;-72
2022/11/28 08:16:53;;;;;;;3.20;3.00;;;17.70;71.90;;;;;;5116414;27;43474;-71
2022/11/28 08:19:21;;;;;;;3.23;2.90;;;17.70;71.80;;;;;;5115978;27;43887;-71
2022/11/28 08:21:51;;;;;;;3.63;3.37;;;17.70;71.90;;;;;;5116481;27;43435;-71
2022/11/28 08:24:19;;;;;;;3.43;3.23;;;17.60;71.90;;;;;;5114671;27;43534;-71
2022/11/28 08:26:47;;;;;;;3.93;3.60;;;17.60;71.90;;;;;;5123862;27;43487;-71
2022/11/28 08:29:15;;;;;;;4.10;3.77;;;17.60;72.20;;;;;;5113738;27;43890;-70
2022/11/28 08:31:43;;;;;;;3.57;3.37;;;17.70;72.10;;;;;;5119722;27;43445;-70
2022/11/28 08:34:12;;;;;;;4.37;3.40;;;17.80;71.80;;;;;;5121205;27;43420;-71
2022/11/28 08:36:42;;;;;;;3.60;3.30;;;17.90;71.30;;;;;;5110096;27;44000;-72
2022/11/28 08:39:11;;;;;;;3.70;3.40;;;18.00;71.80;;;;;;5124731;27;43934;-70
2022/11/28 08:41:55;;;;;;;3.87;3.17;;;17.90;70.90;;;;;;5115991;27;43536;-71
2022/11/28 08:44:24;;;;;;;3.50;3.30;;;17.90;71.30;;;;;;5117308;27;43408;-71
2022/11/28 08:46:52;;;;;;;3.57;3.27;;;17.90;71.30;;;;;;5121558;27;43472;-70
2022/11/28 08:49:21;;;;;;;3.10;2.90;;;17.90;71.20;;;;;;5121354;27;43780;-70
2022/11/28 08:51:49;;;;;;;3.27;3.07;;;17.80;71.20;;;;;;5110784;27;44002;-70
2022/11/28 08:54:17;;;;;;;2.90;2.80;;;17.80;71.40;;;;;;5116036;27;43945;-71
2022/11/28 08:56:46;;;;;;;3.30;3.10;;;17.80;71.60;;;;;;5119439;27;44069;-72
2022/11/28 08:59:14;;;;;;;3.60;3.30;;;17.70;71.80;;;;;;5115756;27;43919;-70
2022/11/28 09:01:42;;;;;;;2.83;2.73;;;17.70;71.80;;;;;;5118153;27;44823;-72
2022/11/28 09:04:11;;;;;;;3.23;3.03;;;17.70;71.70;;;;;;5120311;27;43400;-71
2022/11/28 09:06:40;;;;;;;2.63;2.53;;;17.70;72.40;;;;;;5106118;27;43406;-71
2022/11/28 09:09:08;;;;;;;3.30;3.10;;;17.70;71.80;;;;;;5120288;27;43902;-70
2022/11/28 09:11:36;;;;;;;3.00;2.80;;;17.70;71.90;;;;;;5113075;27;43761;-70
2022/11/28 09:14:04;;;;;;;3.00;2.80;;;17.70;72.10;;;;;;5115341;27;43440;-71
2022/11/28 09:16:32;;;;;;;2.70;2.60;;;17.70;72.80;;;;;;5117846;27;43454;-70
2022/11/28 09:19:00;;;;;;;3.37;3.17;;;17.70;72.00;;;;;;5114218;27;43876;-71
2022/11/28 09:21:28;;;;;;;2.80;2.70;;;17.70;71.90;;;;;;5115352;27;43442;-70
2022/11/28 09:23:58;;;;;;;2.77;2.67;;;17.70;72.00;;;;;;5111921;27;43428;-70
2022/11/28 09:26:26;;;;;;;3.20;3.00;;;17.60;71.90;;;;;;5121183;27;43466;-70
2022/11/28 09:28:54;;;;;;;3.03;2.90;;;17.60;72.20;;;;;;5106441;27;46183;-70
2022/11/28 09:31:22;;;;;;;3.50;3.30;;;17.70;72.30;;;;;;5120639;27;43397;-70
2022/11/28 09:33:50;;;;;;;2.90;2.73;;;17.80;72.10;;;;;;5119876;27;43500;-70
2022/11/28 09:36:19;;;;;;;3.37;3.07;;;17.90;71.70;;;;;;5118331;27;43579;-69
2022/11/28 09:38:47;;;;;;;2.93;2.80;;;17.90;71.20;;;;;;5122064;27;43940;-70
2022/11/28 09:41:54;;;;;;;2.63;2.53;;;17.90;71.10;;;;;;5119589;27;43464;-72
2022/11/28 09:44:25;;;;;;;2.60;2.50;;;17.90;71.40;;;;;;5118187;27;43461;-72
2022/11/28 09:46:55;;;;;;;3.17;2.90;;;17.90;71.40;;;;;;5114181;27;43930;-70
2022/11/28 09:49:29;;;;;;;2.80;2.67;;;17.90;71.20;;;;;;5116830;27;43918;-71
2022/11/28 09:52:07;;;;;;;2.33;2.23;;;17.90;71.40;;;;;;5116644;27;44682;-71
2022/11/28 09:54:40;;;;;;;2.50;2.40;;;17.80;71.50;;;;;;5123474;27;44000;-72
2022/11/28 09:57:10;;;;;;;2.80;2.70;;;17.80;71.60;;;;;;5118038;27;43955;-72
2022/11/28 09:59:40;;;;;;;2.80;2.60;;;17.70;71.90;;;;;;5121411;27;44014;-73
2022/11/28 10:02:19;;;;;;;2.93;2.73;;;17.70;71.80;;;;;;5128698;27;44023;-68
2022/11/28 10:04:50;;;;;;;3.10;2.90;;;17.70;71.70;;;;;;5124172;27;43412;-72
2022/11/28 10:07:20;;;;;;;2.60;2.50;;;17.70;71.80;;;;;;5120840;27;43402;-69
2022/11/28 10:09:54;;;;;;;2.93;2.73;;;17.70;71.90;;;;;;5118238;27;44808;-71
2022/11/28 10:12:32;;;;;;;2.53;2.43;;;17.70;72.00;;;;;;5121691;27;43947;-71
2022/11/28 10:15:14;;;;;;;2.40;2.30;;;17.70;72.30;;;;;;5120596;27;43461;-71
2022/11/28 10:17:45;;;;;;;2.70;2.60;;;17.70;72.10;;;;;;5112594;27;43392;-70
2022/11/28 10:20:16;;;;;;;2.77;2.67;;;17.80;71.70;;;;;;5117732;27;43858;-70
2022/11/28 10:22:47;;;;;;;2.80;2.63;;;17.90;71.60;;;;;;5122305;27;44018;-70
2022/11/28 10:25:17;;;;;;;2.50;2.40;;;17.80;71.50;;;;;;5124163;27;44120;-71
2022/11/28 10:27:45;;;;;;;2.83;2.73;;;17.80;71.60;;;;;;5119930;27;43616;-69
2022/11/28 10:30:20;;;;;;;2.77;2.60;;;17.70;71.80;;;;;;5124974;27;44094;-72
2022/11/28 10:32:53;;;;;;;3.10;2.90;;;17.80;71.80;;;;;;5117725;27;44277;-72
2022/11/28 10:35:25;;;;;;;2.47;2.37;;;17.70;71.70;;;;;;5119947;27;43449;-71
2022/11/28 10:37:55;;;;;;;2.40;2.30;;;17.70;71.70;;;;;;5115478;27;43555;-70
2022/11/28 10:40:28;;;;;;;2.40;2.30;;;17.70;71.80;;;;;;5119091;27;43945;-71
2022/11/28 10:42:58;;;;;;;2.50;2.40;;;17.70;71.90;;;;;;5124957;27;43467;-69
2022/11/28 10:45:31;;;;;;;2.63;2.47;;;17.60;72.20;;;;;;5119215;27;43381;-70
2022/11/28 10:48:19;;;;;;;2.23;2.13;;;17.70;72.10;;;;;;5122275;27;43377;-72
2022/11/28 10:51:16;;;;;;;2.20;2.10;;;17.70;72.10;;;;;;5104869;27;45703;-70
2022/11/28 10:53:46;;;;;;;2.70;2.60;;;17.70;72.10;;;;;;5114937;27;43997;-70
2022/11/28 10:56:20;;;;;;;2.07;1.97;;;17.60;72.00;;;;;;5105780;27;43426;-70
2022/11/28 10:58:53;;;;;;;2.50;2.30;;;17.60;72.20;;;;;;5117340;27;43448;-71
2022/11/28 11:01:23;;;;;;;2.33;2.23;;;17.60;72.50;;;;;;5117799;27;43677;-72
2022/11/28 11:03:51;;;;;;;2.10;2.10;;;17.70;72.30;;;;;;5119459;27;43544;-71
2022/11/28 11:06:19;;;;;;;2.33;2.23;;;17.80;71.90;;;;;;5121325;27;43484;-70
2022/11/28 11:08:46;;;;;;;2.23;2.13;;;17.90;71.50;;;;;;5125598;27;43441;-72
2022/11/28 11:11:23;;;;;;;2.00;2.00;;;17.90;71.20;;;;;;5111848;27;43926;-70
2022/11/28 11:13:56;;;;;;;2.07;2.07;;;17.90;71.20;;;;;;5114404;27;43874;-71
2022/11/28 11:16:26;;;;;;;1.90;1.90;;;17.90;71.60;;;;;;5112190;27;43418;-70
2022/11/28 11:18:54;;;;;;;2.27;2.17;;;17.90;71.40;;;;;;5118014;27;44065;-71
2022/11/28 11:21:23;;;;;;;1.97;1.97;;;17.90;71.50;;;;;;5114736;27;45129;-71
2022/11/28 11:24:10;;;;;;;2.47;2.37;;;17.80;71.50;;;;;;5124525;27;43398;-69
2022/11/28 11:26:40;;;;;;;2.30;2.20;;;17.80;71.70;;;;;;5108017;27;43336;-70
2022/11/28 11:29:21;;;;;;;2.47;2.37;;;17.70;72.10;;;;;;5108181;27;43515;-71
2022/11/28 11:31:52;;;;;;;2.50;2.40;;;17.70;72.00;;;;;;5122306;27;46077;-71
2022/11/28 11:34:21;;;;;;;2.30;2.20;;;17.70;71.90;;;;;;5120788;27;43850;-72
2022/11/28 11:36:49;;;;;;;2.00;2.00;;;17.70;71.90;;;;;;5122475;27;43520;-71
2022/11/28 11:39:21;;;;;;;2.33;2.23;;;17.70;72.00;;;;;;5116255;27;43798;-71
2022/11/28 11:41:50;;;;;;;1.90;1.80;;;17.70;72.00;;;;;;5114936;27;46031;-70
2022/11/28 11:44:29;;;;;;;2.10;2.03;;;17.70;72.10;;;;;;5117718;27;43484;-72
2022/11/28 11:47:01;;;;;;;2.20;2.20;;;17.70;72.20;;;;;;5124610;27;43376;-71
2022/11/28 11:49:31;;;;;;;1.90;1.90;;;17.70;72.10;;;;;;5121958;27;43613;-71
2022/11/28 11:52:01;;;;;;;2.40;2.30;;;17.70;72.10;;;;;;5113074;27;43932;-72
2022/11/28 11:54:28;;;;;;;1.97;1.97;;;17.70;72.10;;;;;;5110678;27;43448;-72
2022/11/28 11:56:57;;;;;;;1.93;1.93;;;17.70;72.20;;;;;;5124539;27;43331;-69
2022/11/28 11:59:47;;;;;;;1.90;1.80;;;17.60;72.20;;;;;;5116489;27;43916;-71
2022/11/28 12:02:21;;;;;;;2.17;2.17;;;17.70;72.50;;;;;;5118609;27;46573;-71
2022/11/28 12:04:50;;;;;;;2.23;2.13;;;17.70;72.20;;;;;;5122981;27;43456;-70
2022/11/28 12:07:24;;;;;;;2.20;2.10;;;17.90;71.90;;;;;;5120546;27;43370;-71
2022/11/28 12:09:52;;;;;;;2.47;2.37;;;17.90;71.50;;;;;;5120018;27;43426;-71
2022/11/28 12:12:40;;;;;;;2.10;2.00;;;17.90;71.50;;;;;;5112383;27;43808;-69
2022/11/28 12:15:15;;;;;;;2.00;1.90;;;17.90;71.80;;;;;;5107588;27;43987;-71
2022/11/28 12:17:52;;;;;;;1.70;1.70;;;17.80;71.70;;;;;;5122951;27;43409;-70
2022/11/28 12:20:36;;;;;;;2.20;2.10;;;17.80;71.60;;;;;;5117711;27;43359;-69
2022/11/28 12:23:10;;;;;;;1.80;1.80;;;17.80;71.80;;;;;;5119232;27;45538;-71
2022/11/28 12:25:45;;;;;;;2.20;2.10;;;17.80;72.10;;;;;;5117646;27;43869;-70
2022/11/28 12:28:17;;;;;;;1.90;1.90;;;17.70;71.90;;;;;;5126708;27;43426;-71
2022/11/28 12:30:53;;;;;;;1.90;1.90;;;17.70;72.30;;;;;;5116811;27;43577;-71
2022/11/28 12:33:30;;;;;;;2.00;2.00;;;17.70;72.10;;;;;;5119343;27;46039;-71
2022/11/28 12:36:11;;;;;;;1.67;1.67;;;17.70;72.10;;;;;;5121242;27;43373;-70
2022/11/28 12:38:49;;;;;;;2.10;2.10;;;17.70;72.20;;;;;;5125755;27;43912;-71
2022/11/28 12:41:34;;;;;;;1.87;1.87;;;17.70;72.30;;;;;;5124638;27;43433;-71
2022/11/28 12:44:03;;;;;;;2.07;2.07;;;17.60;72.30;;;;;;5110233;27;43903;-71
2022/11/28 12:46:36;;;;;;;1.60;1.60;;;17.60;72.50;;;;;;5120600;27;43385;-70
2022/11/28 12:49:14;;;;;;;1.90;1.90;;;17.70;72.30;;;;;;5123617;27;43486;-71
2022/11/28 12:51:51;;;;;;;1.57;1.57;;;17.80;71.80;;;;;;5114281;27;43396;-70
2022/11/28 12:54:30;;;;;;;1.70;1.70;;;17.90;71.60;;;;;;5123832;27;43620;-70
2022/11/28 12:57:01;;;;;;;1.90;1.90;;;17.90;71.60;;;;;;5113130;27;43451;-70
2022/11/28 12:59:32;;;;;;;1.70;1.70;;;17.80;71.70;;;;;;5115708;27;43955;-69
2022/11/28 13:02:02;;;;;;;1.90;1.90;;;17.80;71.80;;;;;;5120067;27;43569;-70
2022/11/28 13:05:01;;;;;;;1.73;1.73;;;17.80;71.60;;;;;;5104543;27;43912;-71